createdAt,value
2019-04-26T00:01:18.283Z,14.97
2019-04-26T00:03:49.863Z,14.33
2019-04-26T00:06:20.399Z,14.77
2019-04-26T00:08:52.122Z,14.10
2019-04-26T00:11:39.181Z,15.20
2019-04-26T00:14:17.057Z,15.70
2019-04-26T00:16:48.771Z,14.73
2019-04-26T00:19:18.860Z,15.37
2019-04-26T00:21:49.123Z,15.43
2019-04-26T00:24:19.582Z,15.43
2019-04-26T00:26:49.600Z,15.17
2019-04-26T00:29:19.617Z,15.07
2019-04-26T00:31:49.777Z,15.30
2019-04-26T00:34:19.849Z,15.13
2019-04-26T00:36:49.945Z,14.87
2019-04-26T00:39:20.333Z,14.90
2019-04-26T00:41:50.855Z,15.17
2019-04-26T00:44:20.946Z,14.63
2019-04-26T00:46:53.086Z,16.47
2019-04-26T00:49:23.616Z,15.27
2019-04-26T00:51:54.341Z,15.13
2019-04-26T00:54:25.673Z,16.33
2019-04-26T00:56:56.140Z,16.03
2019-04-26T00:59:27.345Z,15.27
2019-04-26T01:02:01.797Z,15.07
2019-04-26T01:04:31.882Z,15.33
2019-04-26T01:07:17.158Z,15.10
2019-04-26T01:09:38.847Z,15.83
2019-04-26T01:12:09.074Z,15.00
2019-04-26T01:14:39.084Z,15.10
2019-04-26T01:17:09.133Z,15.83
2019-04-26T01:19:41.477Z,15.00
2019-04-26T01:22:14.548Z,15.40
2019-04-26T01:24:47.989Z,15.17
2019-04-26T01:27:21.327Z,15.30
2019-04-26T01:29:54.513Z,16.30
2019-04-26T01:32:27.031Z,15.60
2019-04-26T01:34:57.782Z,15.70
2019-04-26T01:37:31.158Z,15.97
2019-04-26T01:40:05.818Z,15.60
2019-04-26T01:42:39.661Z,16.23
2019-04-26T01:45:16.291Z,15.63
2019-04-26T01:47:49.394Z,15.57
2019-04-26T01:50:23.545Z,15.13
2019-04-26T01:52:55.040Z,16.13
2019-04-26T01:55:29.171Z,15.83
2019-04-26T01:58:02.438Z,16.53
2019-04-26T02:00:43.399Z,17.33
2019-04-26T02:03:15.125Z,16.30
2019-04-26T02:05:45.285Z,16.87
2019-04-26T02:08:15.385Z,17.90
2019-04-26T02:10:45.759Z,17.80
2019-04-26T02:13:15.902Z,18.27
2019-04-26T02:15:45.920Z,18.37
2019-04-26T02:18:16.039Z,19.00
2019-04-26T02:21:10.595Z,19.60
2019-04-26T02:23:42.473Z,19.60
2019-04-26T02:26:31.141Z,19.93
2019-04-26T02:29:06.857Z,20.07
2019-04-26T02:31:40.098Z,19.90
2019-04-26T02:34:11.202Z,19.83
2019-04-26T02:36:56.406Z,19.23
2019-04-26T02:39:19.458Z,20.63
2019-04-26T02:41:52.518Z,20.57
2019-04-26T02:44:28.994Z,20.40
2019-04-26T02:47:32.583Z,20.40
2019-04-26T02:50:09.894Z,20.43
2019-04-26T02:52:48.654Z,20.10
2019-04-26T02:55:48.991Z,20.90
2019-04-26T02:58:22.458Z,20.57
2019-04-26T03:00:53.710Z,21.37
2019-04-26T03:03:25.786Z,21.63
2019-04-26T03:05:56.433Z,21.77
2019-04-26T03:08:35.813Z,21.23
2019-04-26T03:11:17.218Z,20.73
2019-04-26T03:13:50.437Z,22.03
2019-04-26T03:16:32.775Z,20.83
2019-04-26T03:19:18.975Z,20.93
2019-04-26T03:22:07.071Z,21.50
2019-04-26T03:24:56.784Z,20.20
2019-04-26T03:27:35.037Z,21.10
2019-04-26T03:30:19.647Z,22.03
2019-04-26T03:32:59.126Z,21.70
2019-04-26T03:35:56.643Z,21.87
2019-04-26T03:38:25.293Z,21.50
2019-04-26T03:41:02.743Z,21.67
2019-04-26T03:43:44.859Z,21.17
2019-04-26T03:46:35.110Z,22.27
2019-04-26T03:49:44.363Z,22.07
2019-04-26T03:52:38.027Z,21.37
2019-04-26T03:55:37.801Z,22.30
2019-04-26T03:58:18.396Z,21.67
2019-04-26T04:01:03.347Z,22.23
2019-04-26T04:03:40.291Z,21.70
2019-04-26T04:06:14.861Z,22.23
2019-04-26T04:08:50.700Z,21.50
2019-04-26T04:11:23.820Z,22.33
2019-04-26T04:13:57.014Z,21.80
2019-04-26T04:16:30.767Z,22.03
2019-04-26T04:19:21.467Z,21.83
2019-04-26T04:22:00.428Z,21.90
2019-04-26T04:24:33.752Z,21.43
2019-04-26T04:27:18.862Z,21.90
2019-04-26T04:30:05.451Z,21.67
2019-04-26T04:32:47.705Z,22.13
2019-04-26T04:35:20.842Z,21.90
2019-04-26T04:38:08.095Z,21.47
2019-04-26T04:41:10.831Z,20.53
2019-04-26T04:43:48.802Z,20.93
2019-04-26T04:46:49.721Z,21.37
2019-04-26T04:49:43.046Z,20.83
2019-04-26T04:52:38.264Z,21.50
2019-04-26T04:55:20.225Z,20.43
2019-04-26T04:57:59.094Z,20.20
2019-04-26T05:00:43.101Z,20.57
2019-04-26T05:03:30.660Z,20.03
2019-04-26T05:06:08.116Z,19.53
2019-04-26T05:08:48.924Z,20.17
2019-04-26T05:11:40.312Z,19.93
2019-04-26T05:14:16.292Z,20.03
2019-04-26T05:17:12.079Z,19.53
2019-04-26T05:20:11.049Z,18.90
2019-04-26T05:22:51.104Z,19.13
2019-04-26T05:25:40.721Z,19.13
2019-04-26T05:28:29.773Z,19.47
2019-04-26T05:31:13.690Z,18.87
2019-04-26T05:34:09.323Z,19.07
2019-04-26T05:36:48.829Z,19.47
2019-04-26T05:39:40.490Z,18.57
2019-04-26T05:42:30.012Z,18.90
2019-04-26T05:45:35.894Z,18.70
2019-04-26T05:48:27.697Z,18.17
2019-04-26T05:51:17.203Z,18.10
2019-04-26T05:54:10.075Z,18.70
2019-04-26T05:57:08.409Z,17.43
2019-04-26T05:59:44.462Z,17.10
2019-04-26T06:02:42.926Z,17.40
2019-04-26T06:05:29.651Z,17.67
2019-04-26T06:08:07.100Z,17.30
2019-04-26T06:10:44.740Z,17.20
2019-04-26T06:13:26.021Z,16.43
2019-04-26T06:16:18.665Z,17.07
2019-04-26T06:19:14.259Z,17.57
2019-04-26T06:22:08.126Z,16.60
2019-04-26T06:24:46.897Z,16.97
2019-04-26T06:27:29.978Z,16.63
2019-04-26T06:30:30.394Z,16.90
2019-04-26T06:33:06.374Z,16.77
2019-04-26T06:35:40.940Z,16.67
2019-04-26T06:42:00.849Z,16.80
2019-04-26T06:44:41.074Z,17.30
2019-04-26T06:47:39.483Z,16.80
2019-04-26T06:50:30.627Z,16.27
2019-04-26T06:53:12.869Z,15.93
2019-04-26T06:56:02.975Z,16.27
2019-04-26T06:58:59.257Z,16.33
2019-04-26T07:01:35.423Z,16.13
2019-04-26T07:04:08.547Z,16.07
2019-04-26T07:06:50.544Z,15.73
2019-04-26T07:09:23.619Z,16.87
2019-04-26T07:12:18.012Z,15.87
2019-04-26T07:15:01.073Z,16.80
2019-04-26T07:18:04.569Z,16.57
2019-04-26T07:20:48.239Z,16.23
2019-04-26T07:23:46.689Z,16.10
2019-04-26T07:26:51.412Z,15.40
2019-04-26T07:29:33.518Z,15.77
2019-04-26T07:32:18.469Z,15.47
2019-04-26T07:35:08.709Z,15.10
2019-04-26T07:37:54.375Z,15.53
2019-04-26T07:40:54.438Z,14.90
2019-04-26T07:44:03.860Z,15.07
2019-04-26T07:46:42.393Z,15.27
2019-04-26T07:49:21.101Z,15.97
2019-04-26T07:52:00.137Z,15.13
2019-04-26T07:55:08.627Z,14.87
2019-04-26T07:58:15.334Z,15.00
2019-04-26T08:00:50.101Z,14.93
2019-04-26T08:03:36.801Z,14.20
2019-04-26T08:06:22.091Z,13.70
2019-04-26T08:08:55.234Z,14.70
2019-04-26T08:11:30.905Z,14.53
2019-04-26T08:14:04.756Z,14.63
2019-04-26T08:16:45.047Z,14.10
2019-04-26T08:19:18.236Z,14.30
2019-04-26T08:21:50.926Z,14.27
2019-04-26T08:24:27.986Z,15.00
2019-04-26T08:27:18.762Z,14.93
2019-04-26T08:29:44.069Z,14.50
2019-04-26T08:32:21.334Z,14.43
2019-04-26T08:35:08.181Z,14.63
2019-04-26T08:37:40.727Z,14.37
2019-04-26T08:40:20.091Z,14.47
2019-04-26T08:42:53.415Z,14.93
2019-04-26T08:45:26.639Z,13.83
2019-04-26T08:48:15.198Z,14.17
2019-04-26T08:50:47.829Z,13.40
2019-04-26T08:53:19.735Z,13.90
2019-04-26T08:55:52.130Z,13.57
2019-04-26T08:58:25.246Z,13.97
2019-04-26T09:00:59.979Z,13.10
2019-04-26T09:03:43.440Z,13.07
2019-04-26T09:06:23.825Z,13.93
2019-04-26T09:08:56.814Z,13.87
2019-04-26T09:11:33.396Z,13.37
2019-04-26T09:14:02.975Z,14.17
2019-04-26T09:16:33.335Z,13.60
2019-04-26T09:19:03.426Z,13.47
2019-04-26T09:21:35.055Z,13.93
2019-04-26T09:24:24.926Z,14.27
2019-04-26T09:27:11.521Z,13.40
2019-04-26T09:29:43.227Z,13.93
2019-04-26T09:32:18.031Z,12.30
2019-04-26T09:34:48.588Z,13.23
2019-04-26T09:37:18.854Z,13.10
2019-04-26T09:39:49.028Z,13.40
2019-04-26T09:42:20.802Z,13.73
2019-04-26T09:44:52.580Z,13.13
2019-04-26T09:47:40.410Z,13.37
2019-04-26T09:50:18.399Z,13.63
2019-04-26T09:52:50.475Z,12.93
2019-04-26T09:55:20.477Z,13.83
2019-04-26T09:57:53.522Z,13.03
2019-04-26T10:00:24.545Z,12.87
2019-04-26T10:02:54.556Z,12.97
2019-04-26T10:05:24.874Z,13.00
2019-04-26T10:07:55.033Z,13.60
2019-04-26T10:10:31.120Z,13.43
2019-04-26T10:13:00.678Z,12.97
2019-04-26T10:15:47.381Z,12.87
2019-04-26T10:18:20.318Z,13.63
2019-04-26T10:20:51.523Z,12.63
2019-04-26T10:23:21.531Z,12.70
2019-04-26T10:25:53.508Z,13.10
2019-04-26T10:28:24.808Z,12.40
2019-04-26T10:30:54.823Z,13.50
2019-04-26T10:33:24.971Z,14.73
2019-04-26T10:35:56.713Z,14.07
2019-04-26T10:38:26.899Z,12.40
2019-04-26T10:40:57.001Z,12.30
2019-04-26T10:43:29.295Z,12.83
2019-04-26T10:45:58.721Z,12.40
2019-04-26T10:48:28.876Z,12.57
2019-04-26T10:50:58.952Z,12.90
2019-04-26T10:53:31.976Z,12.60
2019-04-26T10:56:24.160Z,12.37
2019-04-26T10:58:57.606Z,11.97
2019-04-26T11:01:27.679Z,12.33
2019-04-26T11:03:57.814Z,12.97
2019-04-26T11:06:29.065Z,12.33
2019-04-26T11:08:59.163Z,11.63
2019-04-26T11:11:29.507Z,12.13
2019-04-26T11:13:59.521Z,12.60
2019-04-26T11:16:29.800Z,12.80
2019-04-26T11:19:01.254Z,11.90
2019-04-26T11:21:32.883Z,13.20
2019-04-26T11:24:02.939Z,13.10
2019-04-26T11:26:34.689Z,12.50
2019-04-26T11:29:05.295Z,13.83
2019-04-26T11:31:35.295Z,12.83
2019-04-26T11:34:05.863Z,13.13
2019-04-26T11:36:37.675Z,12.77
2019-04-26T11:39:10.461Z,12.30
2019-04-26T11:41:41.138Z,12.23
2019-04-26T11:44:11.188Z,11.97
2019-04-26T11:46:44.941Z,12.00
2019-04-26T11:49:13.073Z,12.50
2019-04-26T11:51:43.055Z,12.97
2019-04-26T11:54:13.085Z,13.30
2019-04-26T11:56:43.082Z,13.20
2019-04-26T11:59:13.248Z,12.63
2019-04-26T12:01:43.405Z,11.60
2019-04-26T12:04:24.093Z,12.30
2019-04-26T12:06:55.763Z,12.87
2019-04-26T12:09:27.476Z,12.23
2019-04-26T12:12:04.363Z,12.70
2019-04-26T12:14:29.555Z,11.07
2019-04-26T12:17:01.361Z,12.33
2019-04-26T12:19:31.459Z,12.20
2019-04-26T12:22:04.376Z,11.87
2019-04-26T12:24:34.491Z,12.43
2019-04-26T12:27:04.951Z,12.40
2019-04-26T12:29:35.052Z,11.60
2019-04-26T12:32:05.138Z,11.50
2019-04-26T12:34:35.161Z,10.57
2019-04-26T12:37:05.204Z,10.77
2019-04-26T12:39:36.604Z,11.17
2019-04-26T12:42:08.182Z,10.90
2019-04-26T12:44:58.065Z,10.80
2019-04-26T12:47:38.669Z,10.47
2019-04-26T12:50:07.579Z,11.00
2019-04-26T12:52:39.001Z,11.43
2019-04-26T12:55:09.148Z,10.60
2019-04-26T12:57:40.919Z,10.60
2019-04-26T13:00:13.540Z,11.50
2019-04-26T13:02:43.816Z,11.17
2019-04-26T13:05:14.548Z,11.23
2019-04-26T13:07:47.318Z,12.07
2019-04-26T13:10:36.799Z,11.93
2019-04-26T13:13:08.665Z,11.90
2019-04-26T13:15:51.908Z,12.03
2019-04-26T13:18:21.977Z,12.60
2019-04-26T13:20:52.106Z,12.33
2019-04-26T13:23:25.415Z,11.30
2019-04-26T13:25:55.527Z,11.67
2019-04-26T13:28:25.677Z,11.40
2019-04-26T13:30:55.826Z,11.43
2019-04-26T13:33:27.389Z,11.43
2019-04-26T13:36:04.911Z,11.07
2019-04-26T13:41:19.505Z,11.03
2019-04-26T13:43:49.619Z,11.30
2019-04-26T13:46:23.958Z,11.23
2019-04-26T13:48:55.702Z,11.07
2019-04-26T13:51:28.429Z,10.80
2019-04-26T13:53:58.439Z,11.70
2019-04-26T13:56:28.455Z,10.60
2019-04-26T13:58:59.903Z,10.47
2019-04-26T14:01:30.025Z,11.33
2019-04-26T14:04:02.529Z,11.13
2019-04-26T14:06:32.088Z,11.00
2019-04-26T14:09:03.010Z,11.13
2019-04-26T14:11:34.816Z,10.83
2019-04-26T14:14:04.953Z,10.90
2019-04-26T14:16:35.266Z,10.67
2019-04-26T14:19:05.603Z,11.30
2019-04-26T14:21:35.751Z,10.50
2019-04-26T14:24:19.595Z,10.37
2019-04-26T14:26:52.843Z,10.73
2019-04-26T14:29:23.023Z,10.77
2019-04-26T14:31:53.228Z,10.80
2019-04-26T14:34:23.185Z,10.30
2019-04-26T14:37:05.923Z,10.37
2019-04-26T14:39:38.450Z,10.30
2019-04-26T14:41:58.866Z,10.57
2019-04-26T14:44:31.346Z,10.43
2019-04-26T14:47:13.179Z,10.53
2019-04-26T14:49:39.249Z,10.00
2019-04-26T14:52:05.457Z,10.17
2019-04-26T14:54:35.455Z,9.90
2019-04-26T14:57:11.365Z,10.23
2019-04-26T14:59:46.982Z,10.13
2019-04-26T15:02:34.738Z,10.10
2019-04-26T15:05:09.284Z,10.00
2019-04-26T15:07:49.501Z,10.03
2019-04-26T15:10:12.384Z,9.37
2019-04-26T15:12:47.038Z,9.83
2019-04-26T15:15:15.378Z,9.47
2019-04-26T15:17:45.377Z,9.70
2019-04-26T15:20:16.709Z,9.33
2019-04-26T15:22:49.889Z,9.30
2019-04-26T15:25:20.032Z,9.30
2019-04-26T15:27:50.084Z,9.73
2019-04-26T15:30:20.089Z,9.37
2019-04-26T15:32:50.249Z,9.70
2019-04-26T15:35:20.236Z,10.03
2019-04-26T15:37:50.275Z,9.60
2019-04-26T15:40:31.866Z,9.27
2019-04-26T15:43:04.989Z,9.67
2019-04-26T15:45:52.437Z,9.57
2019-04-26T15:48:32.153Z,9.53
2019-04-26T15:51:02.779Z,9.07
2019-04-26T15:53:33.240Z,10.07
2019-04-26T15:56:03.692Z,9.73
2019-04-26T15:58:33.692Z,10.13
2019-04-26T16:01:06.684Z,9.97
2019-04-26T16:03:40.514Z,9.77
2019-04-26T16:06:08.513Z,10.57
2019-04-26T16:11:34.969Z,9.17
2019-04-26T16:14:05.114Z,9.43
2019-04-26T16:16:35.107Z,9.30
2019-04-26T16:19:05.370Z,9.57
2019-04-26T16:21:35.751Z,9.80
2019-04-26T16:24:05.887Z,9.30
2019-04-26T16:26:36.044Z,8.93
2019-04-26T16:29:10.399Z,10.17
2019-04-26T16:31:46.040Z,9.70
2019-04-26T16:34:23.393Z,9.20
2019-04-26T16:36:53.566Z,9.37
2019-04-26T16:39:28.487Z,10.23
2019-04-26T16:41:55.293Z,9.93
2019-04-26T16:44:29.974Z,9.67
2019-04-26T16:47:01.293Z,9.43
2019-04-26T16:49:28.861Z,10.13
2019-04-26T16:52:03.077Z,9.83
2019-04-26T16:54:30.710Z,10.63
2019-04-26T16:57:06.828Z,10.47
2019-04-26T16:59:32.921Z,9.70
2019-04-26T17:02:03.143Z,10.00
2019-04-26T17:04:36.300Z,10.00
2019-04-26T17:07:05.315Z,10.00
2019-04-26T17:09:54.872Z,10.13
2019-04-26T17:12:10.477Z,9.77
2019-04-26T17:14:40.589Z,10.27
2019-04-26T17:17:13.632Z,10.73
2019-04-26T17:19:43.224Z,10.73
2019-04-26T17:22:23.892Z,10.57
2019-04-26T17:25:02.558Z,10.23
2019-04-26T17:27:33.728Z,10.20
2019-04-26T17:30:06.318Z,10.37
2019-04-26T17:32:36.593Z,10.33
2019-04-26T17:35:07.971Z,10.60
2019-04-26T17:37:38.060Z,10.90
2019-04-26T17:40:08.408Z,11.20
2019-04-26T17:42:38.571Z,10.90
2019-04-26T17:45:08.717Z,11.07
2019-04-26T17:47:40.742Z,10.50
2019-04-26T17:50:11.873Z,10.50
2019-04-26T17:52:44.222Z,10.60
2019-04-26T17:55:15.154Z,10.63
2019-04-26T17:57:48.324Z,10.70
2019-04-26T18:00:20.729Z,10.73
2019-04-26T18:02:51.197Z,10.87
2019-04-26T18:05:24.485Z,11.10
2019-04-26T18:07:58.321Z,11.30
2019-04-26T18:10:24.909Z,10.83
2019-04-26T18:12:55.371Z,11.20
2019-04-26T18:15:25.403Z,11.47
2019-04-26T18:18:09.665Z,11.67
2019-04-26T18:20:59.273Z,11.80
2019-04-26T18:23:30.525Z,11.40
2019-04-26T18:26:00.652Z,11.70
2019-04-26T18:28:30.756Z,11.83
2019-04-26T18:31:00.863Z,11.73
2019-04-26T18:33:30.944Z,10.97
2019-04-26T18:36:01.159Z,11.53
2019-04-26T18:38:31.177Z,10.90
2019-04-26T18:41:01.574Z,11.33
2019-04-26T18:43:32.760Z,11.90
2019-04-26T18:46:16.949Z,11.67
2019-04-26T18:48:47.043Z,11.40
2019-04-26T18:51:17.039Z,11.30
2019-04-26T18:53:53.101Z,11.80
2019-04-26T18:56:23.985Z,11.30
2019-04-26T18:58:55.671Z,12.60
2019-04-26T19:01:25.968Z,12.20
2019-04-26T19:03:55.972Z,12.53
2019-04-26T19:06:31.698Z,12.40
2019-04-26T19:09:02.426Z,12.43
2019-04-26T19:11:29.794Z,11.93
2019-04-26T19:14:13.743Z,11.83
2019-04-26T19:16:50.259Z,12.67
2019-04-26T19:19:36.051Z,12.37
2019-04-26T19:22:09.540Z,12.53
2019-04-26T19:24:39.761Z,12.13
2019-04-26T19:27:10.083Z,12.77
2019-04-26T19:29:41.112Z,12.77
2019-04-26T19:32:12.018Z,12.23
2019-04-26T19:34:43.078Z,12.90
2019-04-26T19:37:13.460Z,13.40
2019-04-26T19:39:43.684Z,13.67
2019-04-26T19:42:13.757Z,13.30
2019-04-26T19:44:43.829Z,13.50
2019-04-26T19:47:30.782Z,12.53
2019-04-26T19:50:13.474Z,12.23
2019-04-26T19:52:51.911Z,12.43
2019-04-26T19:55:24.054Z,12.33
2019-04-26T19:58:02.004Z,12.70
2019-04-26T20:00:32.343Z,12.47
2019-04-26T20:03:02.467Z,13.53
2019-04-26T20:05:36.312Z,13.73
2019-04-26T20:08:44.396Z,13.73
2019-04-26T20:11:18.855Z,14.90
2019-04-26T20:13:46.972Z,15.40
2019-04-26T20:16:17.961Z,14.77
2019-04-26T20:18:47.977Z,15.27
2019-04-26T20:21:19.047Z,14.40
2019-04-26T20:23:52.024Z,14.57
2019-04-26T20:26:22.460Z,14.07
2019-04-26T20:28:53.542Z,13.67
2019-04-26T20:31:25.256Z,13.33
2019-04-26T20:33:55.407Z,13.23
2019-04-26T20:36:25.486Z,13.30
2019-04-26T20:38:55.495Z,13.20
2019-04-26T20:41:25.628Z,13.20
2019-04-26T20:44:05.119Z,12.97
2019-04-26T20:46:29.641Z,12.90
2019-04-26T20:49:01.416Z,12.57
2019-04-26T20:51:32.316Z,12.97
2019-04-26T20:54:03.859Z,12.70
2019-04-26T20:56:34.193Z,11.93
2019-04-26T20:59:04.342Z,12.27
2019-04-26T21:01:34.435Z,11.97
2019-04-26T21:04:04.443Z,11.83
2019-04-26T21:06:36.904Z,11.90
2019-04-26T21:09:08.498Z,11.90
2019-04-26T21:22:25.411Z,12.20
2019-04-26T21:24:55.302Z,12.07
2019-04-26T21:27:43.058Z,12.10
2019-04-26T21:30:15.334Z,12.70
2019-04-26T21:32:59.393Z,12.03
2019-04-26T21:35:44.431Z,11.77
2019-04-26T21:38:25.529Z,12.30
2019-04-26T21:41:11.693Z,12.73
2019-04-26T21:43:41.166Z,12.50
2019-04-26T21:46:18.451Z,12.30
2019-04-26T21:48:44.591Z,11.50
2019-04-26T21:51:16.305Z,12.50
2019-04-26T21:53:47.464Z,12.90
2019-04-26T21:56:17.493Z,12.73
2019-04-26T21:58:47.568Z,12.03
2019-04-26T22:01:24.908Z,12.77
2019-04-26T22:03:57.962Z,13.33
2019-04-26T22:06:28.738Z,12.50
2019-04-26T22:09:04.749Z,13.13
2019-04-26T22:11:33.747Z,13.40
2019-04-26T22:14:05.569Z,13.43
2019-04-26T22:16:43.194Z,13.60
2019-04-26T22:19:14.927Z,13.93
2019-04-26T22:21:49.636Z,13.50
2019-04-26T22:24:33.843Z,13.57
2019-04-26T22:27:04.012Z,13.93
2019-04-26T22:29:34.031Z,15.17
2019-04-26T22:32:04.758Z,14.90
2019-04-26T22:34:37.354Z,14.03
2019-04-26T22:37:11.332Z,14.40
2019-04-26T22:39:39.973Z,11.60
2019-04-26T22:42:10.154Z,13.97
2019-04-26T22:45:03.284Z,15.07
2019-04-26T22:47:42.779Z,15.77
2019-04-26T22:50:14.023Z,15.10
2019-04-26T22:52:51.289Z,15.33
2019-04-26T22:55:23.961Z,15.00
2019-04-26T22:57:49.595Z,14.50
2019-04-26T23:00:27.887Z,14.50
2019-04-26T23:02:53.373Z,15.27
2019-04-26T23:05:23.540Z,14.63
2019-04-26T23:07:54.766Z,14.27
2019-04-26T23:10:31.104Z,14.03
2019-04-26T23:13:07.927Z,14.50
2019-04-26T23:15:43.909Z,14.27
2019-04-26T23:18:15.909Z,13.83
2019-04-26T23:20:59.914Z,13.50
2019-04-26T23:23:29.984Z,12.70
2019-04-26T23:26:02.249Z,12.63
2019-04-26T23:28:34.522Z,12.57
2019-04-26T23:31:07.853Z,12.40
2019-04-26T23:33:35.474Z,12.00
2019-04-26T23:36:05.518Z,12.40
2019-04-26T23:38:37.359Z,12.20
2019-04-26T23:41:07.568Z,12.83
2019-04-26T23:43:37.587Z,12.70
2019-04-26T23:46:07.619Z,12.47
2019-04-26T23:48:37.649Z,12.33
2019-04-26T23:51:08.450Z,13.30
2019-04-26T23:53:38.745Z,13.50
2019-04-26T23:56:08.770Z,12.77
2019-04-26T23:58:40.273Z,13.33
